sensor_id;sensor_type;location;lat;lon;timestamp;pressure;altitude;pressure_sealevel;temperature;humidity
58473;BME280;44775;51.564;5.460;2023-02-22T00:00:46;101278.00;;;4.83;100.00
58473;BME280;44775;51.564;5.460;2023-02-22T00:05:40;101279.03;;;4.69;100.00
58473;BME280;44775;51.564;5.460;2023-02-22T00:08:13;101282.56;;;4.69;100.00
58473;BME280;44775;51.564;5.460;2023-02-22T00:10:39;101271.84;;;4.71;100.00
58473;BME280;44775;51.564;5.460;2023-02-22T00:13:06;101275.22;;;4.73;100.00
58473;BME280;44775;51.564;5.460;2023-02-22T00:15:32;101271.38;;;4.66;100.00
58473;BME280;44775;51.564;5.460;2023-02-22T00:17:58;101276.53;;;4.67;100.00
58473;BME280;44775;51.564;5.460;2023-02-22T00:20:24;101284.22;;;4.82;100.00
58473;BME280;44775;51.564;5.460;2023-02-22T00:22:50;101273.75;;;4.69;100.00
58473;BME280;44775;51.564;5.460;2023-02-22T00:25:21;101271.09;;;4.69;100.00
58473;BME280;44775;51.564;5.460;2023-02-22T00:27:47;101264.97;;;4.68;100.00
58473;BME280;44775;51.564;5.460;2023-02-22T00:30:23;101266.78;;;4.68;100.00
58473;BME280;44775;51.564;5.460;2023-02-22T00:32:51;101271.22;;;4.67;100.00
58473;BME280;44775;51.564;5.460;2023-02-22T00:35:19;101265.09;;;4.67;100.00
58473;BME280;44775;51.564;5.460;2023-02-22T00:37:49;101264.97;;;4.68;100.00
58473;BME280;44775;51.564;5.460;2023-02-22T00:40:21;101257.63;;;4.72;100.00
58473;BME280;44775;51.564;5.460;2023-02-22T00:42:47;101261.25;;;4.71;100.00
58473;BME280;44775;51.564;5.460;2023-02-22T00:45:15;101252.34;;;4.61;100.00
58473;BME280;44775;51.564;5.460;2023-02-22T00:47:41;101261.13;;;4.61;100.00
58473;BME280;44775;51.564;5.460;2023-02-22T00:50:07;101254.25;;;4.59;100.00
58473;BME280;44775;51.564;5.460;2023-02-22T00:52:34;101254.63;;;4.54;100.00
58473;BME280;44775;51.564;5.460;2023-02-22T00:55:00;101249.69;;;4.49;100.00
58473;BME280;44775;51.564;5.460;2023-02-22T00:57:25;101256.91;;;4.59;100.00
58473;BME280;44775;51.564;5.460;2023-02-22T00:59:50;101249.56;;;4.51;100.00
58473;BME280;44775;51.564;5.460;2023-02-22T01:02:16;101249.47;;;4.53;100.00
58473;BME280;44775;51.564;5.460;2023-02-22T01:04:42;101256.53;;;4.52;100.00
58473;BME280;44775;51.564;5.460;2023-02-22T01:07:07;101246.56;;;4.67;100.00
58473;BME280;44775;51.564;5.460;2023-02-22T01:09:33;101251.25;;;4.52;100.00
58473;BME280;44775;51.564;5.460;2023-02-22T01:11:59;101242.00;;;4.46;100.00
58473;BME280;44775;51.564;5.460;2023-02-22T01:14:26;101241.41;;;4.43;100.00
58473;BME280;44775;51.564;5.460;2023-02-22T01:16:52;101240.78;;;4.39;100.00
58473;BME280;44775;51.564;5.460;2023-02-22T01:19:18;101233.91;;;4.37;100.00
58473;BME280;44775;51.564;5.460;2023-02-22T01:21:44;101235.72;;;4.36;100.00
58473;BME280;44775;51.564;5.460;2023-02-22T01:24:09;101237.53;;;4.36;100.00
58473;BME280;44775;51.564;5.460;2023-02-22T01:26:34;101228.72;;;4.35;100.00
58473;BME280;44775;51.564;5.460;2023-02-22T01:29:00;101221.16;;;4.31;100.00
58473;BME280;44775;51.564;5.460;2023-02-22T01:31:25;101225.72;;;4.29;100.00
58473;BME280;44775;51.564;5.460;2023-02-22T01:33:50;101225.00;;;4.26;100.00
58473;BME280;44775;51.564;5.460;2023-02-22T01:36:16;101219.59;;;4.28;100.00
58473;BME280;44775;51.564;5.460;2023-02-22T01:38:43;101224.31;;;4.36;100.00
58473;BME280;44775;51.564;5.460;2023-02-22T01:41:10;101222.47;;;4.25;100.00
58473;BME280;44775;51.564;5.460;2023-02-22T01:43:36;101218.03;;;4.25;100.00
58473;BME280;44775;51.564;5.460;2023-02-22T01:46:15;101222.38;;;4.26;100.00
58473;BME280;44775;51.564;5.460;2023-02-22T01:48:49;101208.31;;;4.26;100.00
58473;BME280;44775;51.564;5.460;2023-02-22T01:51:22;101210.94;;;4.26;100.00
58473;BME280;44775;51.564;5.460;2023-02-22T01:53:56;101210.22;;;4.24;100.00
58473;BME280;44775;51.564;5.460;2023-02-22T01:56:24;101204.31;;;4.20;100.00
58473;BME280;44775;51.564;5.460;2023-02-22T01:59:10;101210.44;;;4.21;100.00
58473;BME280;44775;51.564;5.460;2023-02-22T02:01:38;101195.41;;;4.21;100.00
58473;BME280;44775;51.564;5.460;2023-02-22T02:04:11;101194.56;;;4.21;100.00
58473;BME280;44775;51.564;5.460;2023-02-22T02:06:39;101193.13;;;4.17;100.00
58473;BME280;44775;51.564;5.460;2023-02-22T02:09:25;101190.50;;;4.17;100.00
58473;BME280;44775;51.564;5.460;2023-02-22T02:11:54;101196.75;;;4.16;100.00
58473;BME280;44775;51.564;5.460;2023-02-22T02:14:20;101186.16;;;4.16;100.00
58473;BME280;44775;51.564;5.460;2023-02-22T02:16:50;101180.66;;;4.19;100.00
58473;BME280;44775;51.564;5.460;2023-02-22T02:19:46;101174.47;;;4.18;100.00
58473;BME280;44775;51.564;5.460;2023-02-22T02:22:46;101170.16;;;4.17;100.00
58473;BME280;44775;51.564;5.460;2023-02-22T02:25:56;101171.97;;;4.17;100.00
58473;BME280;44775;51.564;5.460;2023-02-22T02:28:57;101171.75;;;4.20;100.00
58473;BME280;44775;51.564;5.460;2023-02-22T02:34:34;101164.66;;;4.09;100.00
58473;BME280;44775;51.564;5.460;2023-02-22T02:37:10;101155.75;;;4.10;100.00
58473;BME280;44775;51.564;5.460;2023-02-22T02:39:59;101153.47;;;4.06;100.00
58473;BME280;44775;51.564;5.460;2023-02-22T02:42:39;101160.56;;;4.05;100.00
58473;BME280;44775;51.564;5.460;2023-02-22T02:45:16;101156.09;;;4.06;100.00
58473;BME280;44775;51.564;5.460;2023-02-22T02:47:47;101154.16;;;4.08;100.00
58473;BME280;44775;51.564;5.460;2023-02-22T02:50:36;101150.59;;;4.09;100.00
58473;BME280;44775;51.564;5.460;2023-02-22T02:53:04;101152.63;;;4.05;100.00
58473;BME280;44775;51.564;5.460;2023-02-22T02:55:31;101153.47;;;4.06;100.00
58473;BME280;44775;51.564;5.460;2023-02-22T02:58:02;101154.31;;;4.06;100.00
58473;BME280;44775;51.564;5.460;2023-02-22T03:00:31;101155.00;;;4.08;100.00
58473;BME280;44775;51.564;5.460;2023-02-22T03:08:31;101144.56;;;4.07;100.00
58473;BME280;44775;51.564;5.460;2023-02-22T03:11:17;101148.88;;;4.08;100.00
58473;BME280;44775;51.564;5.460;2023-02-22T03:14:04;101153.00;;;4.12;100.00
58473;BME280;44775;51.564;5.460;2023-02-22T03:19:37;101138.91;;;4.11;100.00
58473;BME280;44775;51.564;5.460;2023-02-22T03:24:59;101127.03;;;4.06;100.00
58473;BME280;44775;51.564;5.460;2023-02-22T03:33:00;101127.03;;;4.06;100.00
58473;BME280;44775;51.564;5.460;2023-02-22T03:35:32;101106.09;;;4.02;100.00
58473;BME280;44775;51.564;5.460;2023-02-22T03:38:01;101112.81;;;4.07;100.00
58473;BME280;44775;51.564;5.460;2023-02-22T03:40:32;101104.75;;;4.08;100.00
58473;BME280;44775;51.564;5.460;2023-02-22T03:43:04;101105.13;;;4.03;100.00
58473;BME280;44775;51.564;5.460;2023-02-22T03:45:32;101097.19;;;3.92;100.00
58473;BME280;44775;51.564;5.460;2023-02-22T03:48:03;101089.63;;;3.99;100.00
58473;BME280;44775;51.564;5.460;2023-02-22T03:50:35;101097.44;;;3.89;100.00
58473;BME280;44775;51.564;5.460;2023-02-22T03:53:02;101095.03;;;3.86;100.00
58473;BME280;44775;51.564;5.460;2023-02-22T03:55:28;101090.72;;;3.85;100.00
58473;BME280;44775;51.564;5.460;2023-02-22T03:57:57;101089.13;;;3.83;100.00
58473;BME280;44775;51.564;5.460;2023-02-22T04:00:26;101088.53;;;3.79;100.00
58473;BME280;44775;51.564;5.460;2023-02-22T04:02:52;101073.97;;;3.73;100.00
58473;BME280;44775;51.564;5.460;2023-02-22T04:05:17;101073.75;;;3.76;100.00
58473;BME280;44775;51.564;5.460;2023-02-22T04:07:43;101071.47;;;3.72;100.00
58473;BME280;44775;51.564;5.460;2023-02-22T04:10:09;101073.38;;;3.70;100.00
58473;BME280;44775;51.564;5.460;2023-02-22T04:12:35;101064.72;;;3.68;100.00
58473;BME280;44775;51.564;5.460;2023-02-22T04:15:02;101057.66;;;3.68;100.00
58473;BME280;44775;51.564;5.460;2023-02-22T04:17:27;101052.94;;;3.61;100.00
58473;BME280;44775;51.564;5.460;2023-02-22T04:19:53;101054.28;;;3.77;100.00
58473;BME280;44775;51.564;5.460;2023-02-22T04:22:18;101046.22;;;3.68;100.00
58473;BME280;44775;51.564;5.460;2023-02-22T04:24:43;101038.56;;;3.65;100.00
58473;BME280;44775;51.564;5.460;2023-02-22T04:27:09;101043.84;;;3.65;100.00
58473;BME280;44775;51.564;5.460;2023-02-22T04:29:35;101044.53;;;3.67;100.00
58473;BME280;44775;51.564;5.460;2023-02-22T04:32:00;101045.88;;;3.61;100.00
58473;BME280;44775;51.564;5.460;2023-02-22T04:34:25;101030.50;;;3.66;100.00
58473;BME280;44775;51.564;5.460;2023-02-22T04:36:51;101046.72;;;3.62;100.00
58473;BME280;44775;51.564;5.460;2023-02-22T04:39:16;101040.69;;;3.60;100.00
58473;BME280;44775;51.564;5.460;2023-02-22T04:41:41;101034.22;;;3.64;100.00
58473;BME280;44775;51.564;5.460;2023-02-22T04:44:07;101039.50;;;3.64;100.00
58473;BME280;44775;51.564;5.460;2023-02-22T04:46:32;101038.56;;;3.65;100.00
58473;BME280;44775;51.564;5.460;2023-02-22T04:48:58;101046.72;;;3.62;100.00
58473;BME280;44775;51.564;5.460;2023-02-22T04:51:23;101038.78;;;3.62;100.00
58473;BME280;44775;51.564;5.460;2023-02-22T04:53:49;101045.63;;;3.64;100.00
58473;BME280;44775;51.564;5.460;2023-02-22T04:56:17;101049.84;;;3.67;100.00
58473;BME280;44775;51.564;5.460;2023-02-22T04:58:42;101040.31;;;3.64;100.00
58473;BME280;44775;51.564;5.460;2023-02-22T05:01:08;101050.19;;;3.62;100.00
58473;BME280;44775;51.564;5.460;2023-02-22T05:03:36;101047.41;;;3.64;100.00
58473;BME280;44775;51.564;5.460;2023-02-22T05:06:01;101035.31;;;3.61;100.00
58473;BME280;44775;51.564;5.460;2023-02-22T05:08:27;101037.94;;;3.61;100.00
58473;BME280;44775;51.564;5.460;2023-02-22T05:10:53;101031.56;;;3.64;100.00
58473;BME280;44775;51.564;5.460;2023-02-22T05:13:19;101030.88;;;3.62;100.00
58473;BME280;44775;51.564;5.460;2023-02-22T05:15:44;101016.81;;;3.61;100.00
58473;BME280;44775;51.564;5.460;2023-02-22T05:18:09;101014.88;;;3.63;100.00
58473;BME280;44775;51.564;5.460;2023-02-22T05:20:35;101011.75;;;3.69;100.00
58473;BME280;44775;51.564;5.460;2023-02-22T05:23:01;101007.69;;;3.65;100.00
58473;BME280;44775;51.564;5.460;2023-02-22T05:25:27;101013.81;;;3.66;100.00
58473;BME280;44775;51.564;5.460;2023-02-22T05:27:58;101009.34;;;3.66;100.00
58473;BME280;44775;51.564;5.460;2023-02-22T05:30:26;101009.50;;;3.65;100.00
58473;BME280;44775;51.564;5.460;2023-02-22T05:32:52;100994.31;;;3.67;100.00
58473;BME280;44775;51.564;5.460;2023-02-22T05:35:19;101002.41;;;3.65;100.00
58473;BME280;44775;51.564;5.460;2023-02-22T05:37:45;100995.41;;;3.64;100.00
58473;BME280;44775;51.564;5.460;2023-02-22T05:40:10;100983.28;;;3.62;100.00
58473;BME280;44775;51.564;5.460;2023-02-22T05:42:35;100989.19;;;3.65;100.00
58473;BME280;44775;51.564;5.460;2023-02-22T05:45:01;100987.38;;;3.66;100.00
58473;BME280;44775;51.564;5.460;2023-02-22T05:47:26;100987.38;;;3.66;100.00
58473;BME280;44775;51.564;5.460;2023-02-22T05:49:51;100985.69;;;3.65;100.00
58473;BME280;44775;51.564;5.460;2023-02-22T05:52:17;100984.00;;;3.64;100.00
58473;BME280;44775;51.564;5.460;2023-02-22T05:54:42;100981.13;;;3.67;100.00
58473;BME280;44775;51.564;5.460;2023-02-22T05:57:07;100981.94;;;3.67;100.00
58473;BME280;44775;51.564;5.460;2023-02-22T05:59:33;100970.31;;;3.70;100.00
58473;BME280;44775;51.564;5.460;2023-02-22T06:01:58;100969.47;;;3.69;100.00
58473;BME280;44775;51.564;5.460;2023-02-22T06:04:23;100967.78;;;3.68;100.00
58473;BME280;44775;51.564;5.460;2023-02-22T06:06:49;100969.47;;;3.69;100.00
58473;BME280;44775;51.564;5.460;2023-02-22T06:09:14;100959.13;;;3.66;100.00
58473;BME280;44775;51.564;5.460;2023-02-22T06:11:39;100959.50;;;3.73;100.00
58473;BME280;44775;51.564;5.460;2023-02-22T06:14:05;100956.84;;;3.73;100.00
58473;BME280;44775;51.564;5.460;2023-02-22T06:16:30;100950.50;;;3.75;100.00
58473;BME280;44775;51.564;5.460;2023-02-22T06:18:56;100939.78;;;3.77;100.00
58473;BME280;44775;51.564;5.460;2023-02-22T06:21:22;100939.91;;;3.75;100.00
58473;BME280;44775;51.564;5.460;2023-02-22T06:23:47;100929.44;;;3.74;100.00
58473;BME280;44775;51.564;5.460;2023-02-22T06:26:16;100931.84;;;3.77;100.00
58473;BME280;44775;51.564;5.460;2023-02-22T06:28:41;100934.38;;;3.78;100.00
58473;BME280;44775;51.564;5.460;2023-02-22T06:31:07;100938.56;;;3.81;100.00
58473;BME280;44775;51.564;5.460;2023-02-22T06:33:32;100930.63;;;3.81;100.00
58473;BME280;44775;51.564;5.460;2023-02-22T06:35:57;100927.06;;;3.82;100.00
58473;BME280;44775;51.564;5.460;2023-02-22T06:38:24;100925.00;;;3.86;100.00
58473;BME280;44775;51.564;5.460;2023-02-22T06:40:50;100927.75;;;3.84;100.00
58473;BME280;44775;51.564;5.460;2023-02-22T06:43:15;100928.59;;;3.85;100.00
58473;BME280;44775;51.564;5.460;2023-02-22T06:45:40;100921.53;;;3.85;100.00
58473;BME280;44775;51.564;5.460;2023-02-22T06:48:06;100923.91;;;3.88;100.00
58473;BME280;44775;51.564;5.460;2023-02-22T06:50:31;100923.19;;;3.86;100.00
58473;BME280;44775;51.564;5.460;2023-02-22T06:52:57;100929.22;;;3.88;100.00
58473;BME280;44775;51.564;5.460;2023-02-22T06:55:24;100932.19;;;3.95;100.00
58473;BME280;44775;51.564;5.460;2023-02-22T06:57:51;100930.63;;;3.92;100.00
58473;BME280;44775;51.564;5.460;2023-02-22T07:00:18;100934.72;;;3.96;100.00
58473;BME280;44775;51.564;5.460;2023-02-22T07:02:44;100935.78;;;3.94;100.00
58473;BME280;44775;51.564;5.460;2023-02-22T07:05:11;100944.44;;;3.96;100.00
58473;BME280;44775;51.564;5.460;2023-02-22T07:07:37;100944.31;;;4.09;100.00
58473;BME280;44775;51.564;5.460;2023-02-22T07:10:04;100950.91;;;4.03;100.00
58473;BME280;44775;51.564;5.460;2023-02-22T07:12:29;100943.09;;;4.01;100.00
58473;BME280;44775;51.564;5.460;2023-02-22T07:14:55;100945.03;;;3.99;100.00
58473;BME280;44775;51.564;5.460;2023-02-22T07:17:20;100942.41;;;3.99;100.00
58473;BME280;44775;51.564;5.460;2023-02-22T07:19:45;100944.78;;;4.02;100.00
58473;BME280;44775;51.564;5.460;2023-02-22T07:22:11;100953.19;;;4.08;100.00
58473;BME280;44775;51.564;5.460;2023-02-22T07:24:36;100958.34;;;4.09;100.00
58473;BME280;44775;51.564;5.460;2023-02-22T07:27:01;100956.66;;;4.19;100.00
58473;BME280;44775;51.564;5.460;2023-02-22T07:29:27;100951.50;;;4.07;100.00
58473;BME280;44775;51.564;5.460;2023-02-22T07:31:52;100946.69;;;4.12;100.00
58473;BME280;44775;51.564;5.460;2023-02-22T07:34:17;100945.59;;;4.14;100.00
58473;BME280;44775;51.564;5.460;2023-02-22T07:36:43;100947.53;;;4.12;100.00
58473;BME280;44775;51.564;5.460;2023-02-22T07:39:08;100957.47;;;4.20;100.00
58473;BME280;44775;51.564;5.460;2023-02-22T07:41:33;100964.94;;;4.15;100.00
58473;BME280;44775;51.564;5.460;2023-02-22T07:43:59;100961.34;;;4.16;100.00
58473;BME280;44775;51.564;5.460;2023-02-22T07:46:24;100964.44;;;4.21;100.00
58473;BME280;44775;51.564;5.460;2023-02-22T07:48:50;100969.38;;;4.25;100.00
58473;BME280;44775;51.564;5.460;2023-02-22T07:51:16;100979.81;;;4.27;100.00
58473;BME280;44775;51.564;5.460;2023-02-22T07:53:41;100977.66;;;4.32;100.00
58473;BME280;44775;51.564;5.460;2023-02-22T07:56:06;100979.00;;;4.26;100.00
58473;BME280;44775;51.564;5.460;2023-02-22T07:58:33;100970.91;;;4.28;100.00
58473;BME280;44775;51.564;5.460;2023-02-22T08:00:59;100982.69;;;4.35;100.00
58473;BME280;44775;51.564;5.460;2023-02-22T08:03:29;100970.25;;;4.47;100.00
58473;BME280;44775;51.564;5.460;2023-02-22T08:05:56;100988.19;;;4.43;100.00
58473;BME280;44775;51.564;5.460;2023-02-22T08:08:22;100981.81;;;4.46;100.00
58473;BME280;44775;51.564;5.460;2023-02-22T08:10:49;100981.69;;;4.47;100.00
58473;BME280;44775;51.564;5.460;2023-02-22T08:13:15;100980.22;;;4.55;100.00
58473;BME280;44775;51.564;5.460;2023-02-22T08:15:41;100984.28;;;4.59;100.00
58473;BME280;44775;51.564;5.460;2023-02-22T08:18:11;100975.59;;;4.68;100.00
58473;BME280;44775;51.564;5.460;2023-02-22T08:20:38;100963.19;;;4.68;100.00
58473;BME280;44775;51.564;5.460;2023-02-22T08:23:05;100956.28;;;4.77;100.00
58473;BME280;44775;51.564;5.460;2023-02-22T08:25:30;100946.28;;;4.81;100.00
58473;BME280;44775;51.564;5.460;2023-02-22T08:28:01;100951.41;;;4.93;100.00
58473;BME280;44775;51.564;5.460;2023-02-22T08:30:28;100947.25;;;5.01;100.00
58473;BME280;44775;51.564;5.460;2023-02-22T08:32:54;100942.97;;;5.09;100.00
58473;BME280;44775;51.564;5.460;2023-02-22T08:35:20;100954.06;;;5.24;100.00
58473;BME280;44775;51.564;5.460;2023-02-22T08:37:48;100945.34;;;5.33;100.00
58473;BME280;44775;51.564;5.460;2023-02-22T08:40:16;100954.50;;;5.60;100.00
58473;BME280;44775;51.564;5.460;2023-02-22T08:42:42;100961.44;;;5.82;100.00
58473;BME280;44775;51.564;5.460;2023-02-22T08:45:08;100970.84;;;5.96;100.00
58473;BME280;44775;51.564;5.460;2023-02-22T08:47:34;100964.88;;;6.13;100.00
58473;BME280;44775;51.564;5.460;2023-02-22T08:49:59;100963.38;;;6.30;100.00
58473;BME280;44775;51.564;5.460;2023-02-22T08:52:24;100961.25;;;6.24;100.00
58473;BME280;44775;51.564;5.460;2023-02-22T08:54:50;100969.81;;;6.37;100.00
58473;BME280;44775;51.564;5.460;2023-02-22T08:57:15;100967.16;;;6.47;100.00
58473;BME280;44775;51.564;5.460;2023-02-22T08:59:40;100950.94;;;6.50;100.00
58473;BME280;44775;51.564;5.460;2023-02-22T09:02:14;100950.94;;;6.50;100.00
58473;BME280;44775;51.564;5.460;2023-02-22T09:04:39;100956.25;;;6.50;100.00
58473;BME280;44775;51.564;5.460;2023-02-22T09:07:05;100968.72;;;6.69;100.00
58473;BME280;44775;51.564;5.460;2023-02-22T09:09:30;100958.66;;;6.72;100.00
58473;BME280;44775;51.564;5.460;2023-02-22T09:11:55;100949.53;;;6.75;100.00
58473;BME280;44775;51.564;5.460;2023-02-22T09:14:20;100954.56;;;6.68;100.00
58473;BME280;44775;51.564;5.460;2023-02-22T09:16:46;100947.75;;;6.66;100.00
58473;BME280;44775;51.564;5.460;2023-02-22T09:19:11;100938.34;;;6.81;100.00
58473;BME280;44775;51.564;5.460;2023-02-22T09:21:37;100932.34;;;6.89;100.00
58473;BME280;44775;51.564;5.460;2023-02-22T09:24:03;100935.56;;;6.92;100.00
58473;BME280;44775;51.564;5.460;2023-02-22T09:26:33;100923.88;;;7.22;100.00
58473;BME280;44775;51.564;5.460;2023-02-22T09:28:58;100929.13;;;7.32;100.00
58473;BME280;44775;51.564;5.460;2023-02-22T09:31:23;100920.91;;;7.25;100.00
58473;BME280;44775;51.564;5.460;2023-02-22T09:33:48;100925.53;;;7.23;100.00
58473;BME280;44775;51.564;5.460;2023-02-22T09:36:14;100922.88;;;7.23;100.00
58473;BME280;44775;51.564;5.460;2023-02-22T09:38:39;100929.34;;;7.48;100.00
58473;BME280;44775;51.564;5.460;2023-02-22T09:41:14;100930.09;;;7.68;100.00
58473;BME280;44775;51.564;5.460;2023-02-22T09:43:48;100922.25;;;7.94;100.00
58473;BME280;44775;51.564;5.460;2023-02-22T09:46:22;100932.84;;;8.04;100.00
58473;BME280;44775;51.564;5.460;2023-02-22T09:51:43;100923.63;;;8.16;100.00
58473;BME280;44775;51.564;5.460;2023-02-22T09:54:15;100926.31;;;8.16;100.00
58473;BME280;44775;51.564;5.460;2023-02-22T09:56:45;100920.63;;;8.29;100.00
58473;BME280;44775;51.564;5.460;2023-02-22T09:59:14;100922.16;;;8.49;100.00
58473;BME280;44775;51.564;5.460;2023-02-22T10:01:46;100928.53;;;8.74;100.00
58473;BME280;44775;51.564;5.460;2023-02-22T10:04:23;100921.03;;;8.96;100.00
58473;BME280;44775;51.564;5.460;2023-02-22T10:09:33;100921.53;;;9.60;100.00
58473;BME280;44775;51.564;5.460;2023-02-22T10:12:09;100917.25;;;9.75;100.00
58473;BME280;44775;51.564;5.460;2023-02-22T10:14:50;100903.59;;;9.78;100.00
58473;BME280;44775;51.564;5.460;2023-02-22T10:17:33;100911.50;;;9.96;100.00
58473;BME280;44775;51.564;5.460;2023-02-22T10:20:10;100907.53;;;10.16;100.00
58473;BME280;44775;51.564;5.460;2023-02-22T10:22:53;100907.88;;;10.13;100.00
58473;BME280;44775;51.564;5.460;2023-02-22T10:25:26;100911.94;;;10.50;100.00
58473;BME280;44775;51.564;5.460;2023-02-22T10:28:16;100922.78;;;10.90;100.00
58473;BME280;44775;51.564;5.460;2023-02-22T10:30:46;100917.25;;;10.99;100.00
58473;BME280;44775;51.564;5.460;2023-02-22T10:33:45;100920.41;;;11.03;100.00
58473;BME280;44775;51.564;5.460;2023-02-22T10:36:18;100913.91;;;10.89;99.30
58473;BME280;44775;51.564;5.460;2023-02-22T10:38:54;100916.06;;;11.02;98.60
58473;BME280;44775;51.564;5.460;2023-02-22T10:41:43;100915.88;;;11.28;100.00
58473;BME280;44775;51.564;5.460;2023-02-22T10:44:12;100918.78;;;10.94;96.24
58473;BME280;44775;51.564;5.460;2023-02-22T10:46:38;100920.38;;;11.19;96.83
58473;BME280;44775;51.564;5.460;2023-02-22T10:49:06;100919.91;;;11.24;97.76
58473;BME280;44775;51.564;5.460;2023-02-22T10:51:32;100922.22;;;11.19;95.16
58473;BME280;44775;51.564;5.460;2023-02-22T10:54:17;100915.19;;;11.34;94.53
58473;BME280;44775;51.564;5.460;2023-02-22T10:56:52;100919.88;;;11.71;93.28
58473;BME280;44775;51.564;5.460;2023-02-22T10:59:37;100920.50;;;11.90;92.91
58473;BME280;44775;51.564;5.460;2023-02-22T11:02:18;100908.81;;;11.74;89.45
58473;BME280;44775;51.564;5.460;2023-02-22T11:04:55;100907.09;;;11.90;91.34
58473;BME280;44775;51.564;5.460;2023-02-22T11:10:07;100910.34;;;12.31;89.34
58473;BME280;44775;51.564;5.460;2023-02-22T11:12:38;100914.59;;;12.86;83.48
58473;BME280;44775;51.564;5.460;2023-02-22T11:17:49;100907.19;;;12.88;78.90
58473;BME280;44775;51.564;5.460;2023-02-22T11:20:32;100910.47;;;13.13;84.05
58473;BME280;44775;51.564;5.460;2023-02-22T11:23:01;100906.28;;;12.58;78.48
58473;BME280;44775;51.564;5.460;2023-02-22T11:25:32;100902.25;;;12.62;80.80
58473;BME280;44775;51.564;5.460;2023-02-22T11:28:24;100900.66;;;12.30;81.22
58473;BME280;44775;51.564;5.460;2023-02-22T11:30:56;100902.47;;;12.07;79.79
58473;BME280;44775;51.564;5.460;2023-02-22T11:33:24;100903.19;;;12.00;81.01
58473;BME280;44775;51.564;5.460;2023-02-22T11:36:01;100900.28;;;12.10;83.62
58473;BME280;44775;51.564;5.460;2023-02-22T11:38:31;100896.66;;;12.03;81.79
58473;BME280;44775;51.564;5.460;2023-02-22T11:41:29;100885.06;;;12.34;82.97
58473;BME280;44775;51.564;5.460;2023-02-22T11:44:13;100883.44;;;12.47;81.80
58473;BME280;44775;51.564;5.460;2023-02-22T11:46:40;100879.81;;;12.78;79.47
58473;BME280;44775;51.564;5.460;2023-02-22T11:49:12;100877.38;;;12.68;77.70
58473;BME280;44775;51.564;5.460;2023-02-22T11:54:30;100863.81;;;12.85;80.15
58473;BME280;44775;51.564;5.460;2023-02-22T11:57:11;100867.22;;;12.79;78.21
58473;BME280;44775;51.564;5.460;2023-02-22T12:00:04;100863.94;;;12.53;80.56
58473;BME280;44775;51.564;5.460;2023-02-22T12:08:24;100850.06;;;12.12;80.18
58473;BME280;44775;51.564;5.460;2023-02-22T12:11:06;100846.78;;;12.02;81.12
58473;BME280;44775;51.564;5.460;2023-02-22T12:19:34;100847.78;;;12.01;83.90
58473;BME280;44775;51.564;5.460;2023-02-22T12:22:07;100848.97;;;11.98;85.38
58473;BME280;44775;51.564;5.460;2023-02-22T12:24:41;100848.84;;;11.83;85.32
58473;BME280;44775;51.564;5.460;2023-02-22T12:27:14;100838.72;;;11.71;85.35
58473;BME280;44775;51.564;5.460;2023-02-22T12:29:46;100827.28;;;11.54;85.00
58473;BME280;44775;51.564;5.460;2023-02-22T12:32:27;100813.03;;;11.62;86.60
58473;BME280;44775;51.564;5.460;2023-02-22T12:35:03;100817.38;;;11.63;86.72
58473;BME280;44775;51.564;5.460;2023-02-22T12:40:34;100829.59;;;11.26;91.96
58473;BME280;44775;51.564;5.460;2023-02-22T12:43:30;100830.97;;;11.14;94.82
58473;BME280;44775;51.564;5.460;2023-02-22T12:46:11;100824.28;;;11.09;97.46
58473;BME280;44775;51.564;5.460;2023-02-22T12:48:55;100832.69;;;10.98;97.94
58473;BME280;44775;51.564;5.460;2023-02-22T12:51:32;100830.53;;;10.94;100.00
58473;BME280;44775;51.564;5.460;2023-02-22T12:54:13;100836.09;;;10.84;100.00
58473;BME280;44775;51.564;5.460;2023-02-22T12:57:50;100841.44;;;10.76;100.00
58473;BME280;44775;51.564;5.460;2023-02-22T12:59:58;100840.31;;;10.54;100.00
58473;BME280;44775;51.564;5.460;2023-02-22T13:02:29;100839.31;;;10.47;100.00
58473;BME280;44775;51.564;5.460;2023-02-22T13:04:56;100841.81;;;10.32;100.00
58473;BME280;44775;51.564;5.460;2023-02-22T13:13:15;100847.78;;;10.09;100.00
58473;BME280;44775;51.564;5.460;2023-02-22T13:15:55;100847.28;;;10.06;100.00
58473;BME280;44775;51.564;5.460;2023-02-22T13:18:31;100850.47;;;10.09;100.00
58473;BME280;44775;51.564;5.460;2023-02-22T13:21:12;100845.25;;;10.08;100.00
58473;BME280;44775;51.564;5.460;2023-02-22T13:23:57;100840.06;;;9.98;100.00
58473;BME280;44775;51.564;5.460;2023-02-22T13:29:13;100839.09;;;10.07;100.00
58473;BME280;44775;51.564;5.460;2023-02-22T13:34:48;100837.75;;;10.03;100.00
58473;BME280;44775;51.564;5.460;2023-02-22T13:42:40;100824.28;;;10.29;100.00
58473;BME280;44775;51.564;5.460;2023-02-22T13:45:34;100829.09;;;10.42;100.00
58473;BME280;44775;51.564;5.460;2023-02-22T13:48:15;100823.44;;;10.37;100.00
58473;BME280;44775;51.564;5.460;2023-02-22T13:53:42;100822.44;;;10.46;100.00
58473;BME280;44775;51.564;5.460;2023-02-22T13:56:12;100831.97;;;10.40;100.00
58473;BME280;44775;51.564;5.460;2023-02-22T13:58:54;100824.97;;;10.39;100.00
58473;BME280;44775;51.564;5.460;2023-02-22T14:01:41;100826.75;;;10.39;100.00
58473;BME280;44775;51.564;5.460;2023-02-22T14:06:51;100821.78;;;10.28;100.00
58473;BME280;44775;51.564;5.460;2023-02-22T14:12:04;100830.94;;;10.42;100.00
58473;BME280;44775;51.564;5.460;2023-02-22T14:14:29;100832.13;;;10.39;100.00
58473;BME280;44775;51.564;5.460;2023-02-22T14:17:18;100842.78;;;10.39;100.00
58473;BME280;44775;51.564;5.460;2023-02-22T14:22:38;100849.50;;;10.27;100.00